createdAt,value
2018-01-18T00:01:34.627Z,100185.45
2018-01-18T00:04:06.007Z,100172.59
2018-01-18T00:06:35.494Z,100171.50
2018-01-18T00:09:06.022Z,100174.02
2018-01-18T00:11:35.638Z,100181.47
2018-01-18T00:14:05.592Z,100181.27
2018-01-18T00:16:35.708Z,100174.45
2018-01-18T00:19:05.274Z,100172.94
2018-01-18T00:21:34.451Z,100177.11
2018-01-18T00:24:04.944Z,100177.77
2018-01-18T00:26:34.402Z,100176.35
2018-01-18T00:29:03.713Z,100181.98
2018-01-18T00:31:32.912Z,100169.11
2018-01-18T00:34:03.422Z,100168.45
2018-01-18T00:36:33.255Z,100167.52
2018-01-18T00:39:02.610Z,100165.63
2018-01-18T00:41:32.055Z,100153.94
2018-01-18T00:44:01.912Z,100151.11
2018-01-18T00:46:31.098Z,100153.78
2018-01-18T00:49:00.754Z,100142.86
2018-01-18T00:51:30.921Z,100130.87
2018-01-18T00:54:00.179Z,100138.03
2018-01-18T00:56:30.311Z,100137.67
2018-01-18T00:58:59.430Z,100142.30
2018-01-18T01:01:28.575Z,100149.59
2018-01-18T01:03:58.075Z,100147.36
2018-01-18T01:06:27.217Z,100158.89
2018-01-18T01:08:56.605Z,100150.15
2018-01-18T01:11:26.371Z,100138.95
2018-01-18T01:13:55.543Z,100135.55
2018-01-18T01:16:24.661Z,100137.86
2018-01-18T01:18:54.110Z,100133.82
2018-01-18T01:21:23.309Z,100128.36
2018-01-18T01:23:52.430Z,100120.21
2018-01-18T01:26:21.867Z,100113.14
2018-01-18T01:28:51.046Z,100107.05
2018-01-18T01:31:20.200Z,100100.93
2018-01-18T01:33:49.724Z,100103.31
2018-01-18T01:36:18.925Z,100101.92
2018-01-18T01:38:48.094Z,100091.75
2018-01-18T01:41:17.589Z,100086.12
2018-01-18T01:43:46.732Z,100083.01
2018-01-18T01:46:15.865Z,100083.66
2018-01-18T01:48:45.328Z,100068.19
2018-01-18T01:51:14.498Z,100064.67
2018-01-18T01:53:43.686Z,100063.41
2018-01-18T01:56:13.138Z,100064.00
2018-01-18T01:58:42.242Z,100066.27
2018-01-18T02:01:11.372Z,100065.74
2018-01-18T02:03:40.527Z,100057.22
2018-01-18T02:06:09.732Z,100048.61
2018-01-18T02:08:38.871Z,100044.28
2018-01-18T02:11:08.445Z,100037.05
2018-01-18T02:13:37.567Z,100014.35
2018-01-18T02:16:06.765Z,100004.36
2018-01-18T02:18:35.891Z,99991.77
2018-01-18T02:21:05.007Z,99975.66
2018-01-18T02:23:34.103Z,99966.11
2018-01-18T02:26:04.640Z,99960.72
2018-01-18T02:28:33.807Z,99955.61
2018-01-18T02:31:03.029Z,99952.00
2018-01-18T02:33:32.159Z,99955.19
2018-01-18T02:36:01.727Z,99957.80
2018-01-18T02:38:30.860Z,99936.91
2018-01-18T02:41:01.381Z,99945.59
2018-01-18T02:43:30.518Z,99942.41
2018-01-18T02:45:59.633Z,99946.45
2018-01-18T02:48:29.370Z,99939.00
2018-01-18T02:50:58.487Z,99927.81
2018-01-18T02:53:27.574Z,99929.06
2018-01-18T02:55:56.983Z,99921.62
2018-01-18T02:58:26.090Z,99918.72
2018-01-18T03:00:55.208Z,99913.38
2018-01-18T03:03:24.617Z,99914.69
2018-01-18T03:05:53.772Z,99912.95
2018-01-18T03:08:22.971Z,99907.77
2018-01-18T03:10:52.406Z,99896.31
2018-01-18T03:13:21.579Z,99883.18
2018-01-18T03:15:50.707Z,99870.96
2018-01-18T03:18:20.672Z,99870.72
2018-01-18T03:20:49.820Z,99862.16
2018-01-18T03:23:18.923Z,99855.70
2018-01-18T03:25:48.306Z,99854.25
2018-01-18T03:28:17.394Z,99848.42
2018-01-18T03:30:46.499Z,99839.50
2018-01-18T03:33:15.921Z,99833.52
2018-01-18T03:35:45.057Z,99829.27
2018-01-18T03:38:14.362Z,99826.52
2018-01-18T03:40:43.742Z,99807.61
2018-01-18T03:43:12.868Z,99804.19
2018-01-18T03:45:41.976Z,99800.75
2018-01-18T03:48:11.351Z,99795.03
2018-01-18T03:50:40.461Z,99780.02
2018-01-18T03:53:09.715Z,99777.56
2018-01-18T03:55:39.110Z,99764.98
2018-01-18T03:58:08.603Z,99764.41
2018-01-18T04:00:37.705Z,99745.23
2018-01-18T04:03:07.173Z,99737.23
2018-01-18T04:05:36.274Z,99731.55
2018-01-18T04:08:05.995Z,99723.34
2018-01-18T04:10:35.470Z,99714.02
2018-01-18T04:13:04.758Z,99704.19
2018-01-18T04:15:34.183Z,99700.23
2018-01-18T04:18:03.787Z,99699.36
2018-01-18T04:20:33.266Z,99676.13
2018-01-18T04:23:02.456Z,99676.48
2018-01-18T04:25:31.587Z,99652.83
2018-01-18T04:28:00.987Z,99638.02
2018-01-18T04:30:30.093Z,99636.34
2018-01-18T04:32:59.233Z,99624.30
2018-01-18T04:35:28.622Z,99623.78
2018-01-18T04:37:57.709Z,99609.08
2018-01-18T04:40:26.812Z,99602.46
2018-01-18T04:42:55.909Z,99598.30
2018-01-18T04:45:25.051Z,99591.30
2018-01-18T04:47:54.126Z,99578.89
2018-01-18T04:50:23.539Z,99579.58
2018-01-18T04:52:52.673Z,99579.69
2018-01-18T04:55:21.795Z,99572.83
2018-01-18T04:57:51.186Z,99564.59
2018-01-18T05:00:20.399Z,99564.89
2018-01-18T05:02:49.508Z,99548.76
2018-01-18T05:05:18.901Z,99536.77
2018-01-18T05:07:48.031Z,99527.59
2018-01-18T05:10:17.436Z,99517.22
2018-01-18T05:12:46.927Z,99506.97
2018-01-18T05:15:16.118Z,99501.02
2018-01-18T05:17:45.839Z,99492.77
2018-01-18T05:20:14.952Z,99480.14
2018-01-18T05:22:44.055Z,99467.42
2018-01-18T05:25:13.247Z,99465.92
2018-01-18T05:27:42.667Z,99459.16
2018-01-18T05:30:11.907Z,99450.81
2018-01-18T05:32:41.169Z,99448.27
2018-01-18T05:35:11.660Z,99438.20
2018-01-18T05:37:40.773Z,99426.76
2018-01-18T05:40:09.930Z,99415.17
2018-01-18T05:42:39.361Z,99406.44
2018-01-18T05:45:08.610Z,99395.94
2018-01-18T05:47:37.731Z,99403.80
2018-01-18T05:50:07.175Z,99379.81
2018-01-18T05:52:36.297Z,99364.27
2018-01-18T05:55:05.461Z,99358.75
2018-01-18T05:57:34.956Z,99349.22
2018-01-18T06:00:05.165Z,99340.88
2018-01-18T06:02:34.287Z,99303.12
2018-01-18T06:05:03.963Z,99318.74
2018-01-18T06:07:33.094Z,99286.75
2018-01-18T06:10:03.961Z,99285.80
2018-01-18T06:12:34.343Z,99284.39
2018-01-18T06:15:03.741Z,99274.32
2018-01-18T06:17:32.911Z,99258.99
2018-01-18T06:20:03.386Z,99281.25
2018-01-18T06:22:32.676Z,99277.87
2018-01-18T06:25:02.148Z,99251.58
2018-01-18T06:27:31.615Z,99274.85
2018-01-18T06:30:00.860Z,99274.88
2018-01-18T06:32:30.100Z,99254.41
2018-01-18T06:35:04.141Z,99217.33
2018-01-18T06:37:37.917Z,99241.64
2018-01-18T06:40:07.730Z,99251.52
2018-01-18T06:42:37.106Z,99250.77
2018-01-18T06:45:06.452Z,99244.38
2018-01-18T06:47:37.154Z,99257.02
2018-01-18T06:50:06.641Z,99235.19
2018-01-18T06:52:36.078Z,99216.07
2018-01-18T06:55:05.483Z,99210.83
2018-01-18T06:57:34.617Z,99224.19
2018-01-18T07:00:06.062Z,99227.03
2018-01-18T07:02:35.552Z,99231.12
2018-01-18T07:05:04.932Z,99217.59
2018-01-18T07:07:34.205Z,99218.81
2018-01-18T07:12:45.217Z,99228.87
2018-01-18T07:15:14.693Z,99239.63
2018-01-18T07:17:44.126Z,99214.94
2018-01-18T07:20:13.299Z,99219.16
2018-01-18T07:22:42.494Z,99217.48
2018-01-18T07:25:11.687Z,99205.45
2018-01-18T07:27:40.844Z,99168.95
2018-01-18T07:30:10.618Z,99182.53
2018-01-18T07:32:39.807Z,99176.49
2018-01-18T07:35:09.202Z,99179.66
2018-01-18T07:37:38.663Z,99192.84
2018-01-18T07:40:08.100Z,99184.73
2018-01-18T07:42:37.243Z,99206.91
2018-01-18T07:45:06.712Z,99179.88
2018-01-18T07:47:36.534Z,99175.73
2018-01-18T07:50:06.230Z,99184.53
2018-01-18T07:52:35.642Z,99178.20
2018-01-18T07:55:05.151Z,99157.81
2018-01-18T07:57:34.627Z,99169.09
2018-01-18T08:00:04.662Z,99149.28
2018-01-18T08:02:34.794Z,99158.03
2018-01-18T08:05:05.800Z,99165.00
2018-01-18T08:07:36.619Z,99123.58
2018-01-18T08:10:06.720Z,99143.73
2018-01-18T08:12:36.115Z,99128.00
2018-01-18T08:15:05.969Z,99137.93
2018-01-18T08:17:35.066Z,99124.52
2018-01-18T08:20:05.278Z,99117.77
2018-01-18T08:22:34.420Z,99116.77
2018-01-18T08:25:04.378Z,99125.28
2018-01-18T08:27:34.528Z,99086.09
2018-01-18T08:30:04.471Z,99147.17
2018-01-18T08:32:33.608Z,99110.26
2018-01-18T08:35:03.122Z,99098.35
2018-01-18T08:37:32.649Z,99083.36
2018-01-18T08:40:03.076Z,99097.90
2018-01-18T08:42:32.395Z,99099.05
2018-01-18T08:45:01.930Z,99102.28
2018-01-18T08:47:31.382Z,99067.50
2018-01-18T08:50:00.580Z,99088.41
2018-01-18T08:52:29.744Z,99081.11
2018-01-18T08:54:59.163Z,99072.20
2018-01-18T08:57:28.676Z,99057.19
2018-01-18T08:59:57.788Z,99064.11
2018-01-18T09:02:27.218Z,99057.98
2018-01-18T09:04:56.499Z,99058.00
2018-01-18T09:07:27.444Z,99073.55
2018-01-18T09:09:56.605Z,99077.27
2018-01-18T09:12:25.786Z,99072.80
2018-01-18T09:14:54.936Z,99088.25
2018-01-18T09:17:24.041Z,99059.19
2018-01-18T09:19:53.148Z,99071.97
2018-01-18T09:22:23.020Z,99078.72
2018-01-18T09:24:52.187Z,99057.51
2018-01-18T09:27:21.837Z,99091.83
2018-01-18T09:29:51.343Z,99079.94
2018-01-18T09:32:20.531Z,99099.44
2018-01-18T09:34:49.630Z,99086.09
2018-01-18T09:37:19.216Z,99080.36
2018-01-18T09:39:48.541Z,99088.51
2018-01-18T09:42:17.731Z,99080.54
2018-01-18T09:44:47.308Z,99095.97
2018-01-18T09:47:18.767Z,99103.53
2018-01-18T09:49:47.946Z,99084.95
2018-01-18T09:52:17.889Z,99069.81
2018-01-18T09:54:47.186Z,99068.03
2018-01-18T09:57:16.453Z,99064.48
2018-01-18T09:59:45.673Z,99068.80
2018-01-18T10:02:14.955Z,99070.06
2018-01-18T10:04:44.514Z,99054.18
2018-01-18T10:07:13.657Z,99036.73
2018-01-18T10:09:42.812Z,99060.84
2018-01-18T10:12:13.428Z,99045.67
2018-01-18T10:14:42.569Z,99038.31
2018-01-18T10:17:11.748Z,99044.50
2018-01-18T10:19:41.186Z,99021.16
2018-01-18T10:22:10.536Z,99028.26
2018-01-18T10:24:39.736Z,99027.61
2018-01-18T10:27:09.354Z,99026.27
2018-01-18T10:29:38.538Z,98995.26
2018-01-18T10:32:08.163Z,98990.22
2018-01-18T10:34:38.026Z,98993.38
2018-01-18T10:37:07.235Z,98983.25
2018-01-18T10:39:36.674Z,98993.72
2018-01-18T10:42:05.978Z,99006.17
2018-01-18T10:44:35.326Z,99004.77
2018-01-18T10:47:04.765Z,99009.07
2018-01-18T10:49:33.886Z,99002.36
2018-01-18T10:52:04.007Z,99004.23
2018-01-18T10:54:33.657Z,98991.02
2018-01-18T10:57:03.420Z,99001.22
2018-01-18T10:59:33.121Z,98989.22
2018-01-18T11:02:04.345Z,99000.36
2018-01-18T11:04:35.134Z,98983.98
2018-01-18T11:07:04.502Z,98967.88
2018-01-18T11:09:33.672Z,98954.95
2018-01-18T11:12:03.934Z,98940.33
2018-01-18T11:14:33.150Z,98965.25
2018-01-18T11:17:03.067Z,98937.98
2018-01-18T11:19:32.289Z,98944.88
2018-01-18T11:22:02.742Z,98949.33
2018-01-18T11:24:31.930Z,98949.83
2018-01-18T11:27:01.278Z,98958.89
2018-01-18T11:29:30.484Z,98974.92
2018-01-18T11:31:59.699Z,98973.41
2018-01-18T11:34:29.765Z,98966.54
2018-01-18T11:36:59.303Z,98963.69
2018-01-18T11:39:28.592Z,98939.11
2018-01-18T11:41:57.856Z,98933.06
2018-01-18T11:44:27.389Z,98955.08
2018-01-18T11:46:56.592Z,98960.16
2018-01-18T11:49:25.753Z,98947.92
2018-01-18T11:51:54.933Z,98933.56
2018-01-18T11:54:24.252Z,98952.69
2018-01-18T11:56:53.732Z,98930.77
2018-01-18T11:59:24.350Z,98956.02
2018-01-18T12:01:53.506Z,98961.41
2018-01-18T12:04:23.022Z,98952.67
2018-01-18T12:06:52.182Z,98955.88
2018-01-18T12:09:21.665Z,98978.08
2018-01-18T12:11:51.246Z,98968.19
2018-01-18T12:14:20.410Z,98964.09
2018-01-18T12:16:49.643Z,98965.52
2018-01-18T12:19:19.147Z,98955.86
2018-01-18T12:21:48.334Z,98979.77
2018-01-18T12:24:19.805Z,98984.55
2018-01-18T12:26:49.516Z,98976.75
2018-01-18T12:29:18.754Z,98993.86
2018-01-18T12:31:47.992Z,98978.25
2018-01-18T12:34:17.128Z,98980.68
2018-01-18T12:36:46.291Z,98997.03
2018-01-18T12:39:16.479Z,99016.67
2018-01-18T12:41:45.656Z,98996.64
2018-01-18T12:44:16.826Z,98997.03
2018-01-18T12:46:46.457Z,99005.80
2018-01-18T12:49:15.715Z,99013.45
2018-01-18T12:51:44.838Z,99001.65
2018-01-18T12:54:14.314Z,99008.92
2018-01-18T12:56:43.452Z,99011.48
2018-01-18T12:59:13.154Z,98996.27
2018-01-18T13:01:42.616Z,99008.29
2018-01-18T13:04:13.688Z,99003.50
2018-01-18T13:06:42.819Z,99029.06
2018-01-18T13:09:12.284Z,99024.24
2018-01-18T13:11:41.495Z,99019.47
2018-01-18T13:14:11.934Z,99019.44
2018-01-18T13:16:41.121Z,99011.48
2018-01-18T13:19:10.550Z,99009.38
2018-01-18T13:21:40.930Z,99009.50
2018-01-18T13:24:10.872Z,99017.30
2018-01-18T13:26:40.122Z,99015.14
2018-01-18T13:29:09.778Z,99023.27
2018-01-18T13:31:40.720Z,99024.13
2018-01-18T13:34:10.019Z,99025.08
2018-01-18T13:36:39.497Z,99021.78
2018-01-18T13:39:08.871Z,99010.67
2018-01-18T13:41:38.460Z,99020.48
2018-01-18T13:44:07.993Z,99032.67
2018-01-18T13:46:37.164Z,99030.31
2018-01-18T13:49:06.322Z,99029.12
2018-01-18T13:51:36.824Z,99026.50
2018-01-18T13:54:06.350Z,99025.41
2018-01-18T13:56:35.657Z,99032.58
2018-01-18T13:59:04.953Z,99038.47
2018-01-18T14:01:34.234Z,99025.34
2018-01-18T14:04:05.851Z,99026.60
2018-01-18T14:06:36.636Z,99045.61
2018-01-18T14:09:07.119Z,99049.47
2018-01-18T14:11:37.007Z,99041.54
2018-01-18T14:14:06.856Z,99048.25
2018-01-18T14:16:36.470Z,99050.80
2018-01-18T14:19:05.740Z,99051.78
2018-01-18T14:21:35.149Z,99045.70
2018-01-18T14:24:06.537Z,99064.44
2018-01-18T14:26:35.756Z,99062.38
2018-01-18T14:29:04.995Z,99065.89
2018-01-18T14:31:34.451Z,99070.33
2018-01-18T14:34:04.643Z,99080.22
2018-01-18T14:36:36.312Z,99086.37
2018-01-18T14:39:06.422Z,99082.70
2018-01-18T14:41:36.915Z,99091.16
2018-01-18T14:44:06.245Z,99095.52
2018-01-18T14:46:35.724Z,99106.81
2018-01-18T14:49:05.152Z,99121.75
2018-01-18T14:51:34.355Z,99132.29
2018-01-18T14:54:05.932Z,99121.62
2018-01-18T14:56:35.201Z,99120.61
2018-01-18T14:59:04.772Z,99120.50
2018-01-18T15:01:34.083Z,99117.02
2018-01-18T15:04:05.571Z,99123.72
2018-01-18T15:06:36.226Z,99125.77
2018-01-18T15:09:05.887Z,99127.59
2018-01-18T15:11:35.263Z,99140.02
2018-01-18T15:14:06.268Z,99145.80
2018-01-18T15:16:35.593Z,99146.73
2018-01-18T15:19:04.921Z,99155.13
2018-01-18T15:21:34.337Z,99162.63
2018-01-18T15:24:04.874Z,99161.78
2018-01-18T15:29:14.319Z,99168.52
2018-01-18T15:31:48.323Z,99165.13
2018-01-18T15:34:18.665Z,99171.38
2018-01-18T15:36:48.483Z,99179.69
2018-01-18T15:39:17.818Z,99183.58
2018-01-18T15:41:47.753Z,99194.78
2018-01-18T15:44:16.938Z,99195.50
2018-01-18T15:46:46.301Z,99189.91
2018-01-18T15:49:15.737Z,99195.39
2018-01-18T15:51:44.974Z,99203.74
2018-01-18T15:54:15.476Z,99211.52
2018-01-18T15:56:44.967Z,99209.64
2018-01-18T15:59:14.365Z,99212.48
2018-01-18T16:01:43.525Z,99209.91
2018-01-18T16:04:13.242Z,99223.73
2018-01-18T16:06:42.370Z,99227.25
2018-01-18T16:09:11.581Z,99233.17
2018-01-18T16:11:41.035Z,99236.92
2018-01-18T16:14:10.461Z,99239.30
2018-01-18T16:16:39.620Z,99234.59
2018-01-18T16:19:08.855Z,99241.20
2018-01-18T16:21:39.779Z,99237.11
2018-01-18T16:24:09.834Z,99241.63
2018-01-18T16:26:39.394Z,99251.85
2018-01-18T16:29:08.789Z,99250.92
2018-01-18T16:31:38.799Z,99262.15
2018-01-18T16:34:08.527Z,99265.70
2018-01-18T16:36:37.655Z,99258.25
2018-01-18T16:39:07.198Z,99262.84
2018-01-18T16:41:36.415Z,99261.10
2018-01-18T16:44:06.698Z,99260.94
2018-01-18T16:46:36.156Z,99267.08
2018-01-18T16:49:05.500Z,99266.96
2018-01-18T16:51:34.974Z,99266.63
2018-01-18T16:54:05.932Z,99264.16
2018-01-18T16:56:35.712Z,99270.61
2018-01-18T16:59:05.038Z,99281.92
2018-01-18T17:01:34.792Z,99306.45
2018-01-18T17:04:05.434Z,99295.79
2018-01-18T17:09:05.381Z,99286.36
2018-01-18T17:11:34.947Z,99279.70
2018-01-18T17:14:05.526Z,99277.22
2018-01-18T17:16:35.657Z,99286.93
2018-01-18T17:19:04.959Z,99288.70
2018-01-18T17:21:34.776Z,99287.54
2018-01-18T17:24:06.179Z,99285.60
2018-01-18T17:26:35.402Z,99291.67
2018-01-18T17:29:06.042Z,99302.16
2018-01-18T17:31:36.289Z,99295.03
2018-01-18T17:34:10.346Z,99301.53
2018-01-18T17:36:40.014Z,99313.89
2018-01-18T17:39:11.909Z,99313.92
2018-01-18T17:41:41.159Z,99317.94
2018-01-18T17:44:10.587Z,99315.11
2018-01-18T17:46:39.908Z,99315.11
2018-01-18T17:49:09.559Z,99332.33
2018-01-18T17:51:39.128Z,99352.04
2018-01-18T17:54:08.590Z,99363.64
2018-01-18T17:56:38.143Z,99372.15
2018-01-18T17:59:07.332Z,99376.64
2018-01-18T18:01:36.554Z,99375.08
2018-01-18T18:04:07.300Z,99366.45
2018-01-18T18:06:36.772Z,99368.67
2018-01-18T18:09:06.113Z,99357.20
2018-01-18T18:11:36.762Z,99363.86
2018-01-18T18:14:07.808Z,99360.89
2018-01-18T18:16:39.156Z,99350.70
2018-01-18T18:19:08.885Z,99358.88
2018-01-18T18:21:40.443Z,99363.38
2018-01-18T18:24:12.245Z,99368.26
2018-01-18T18:26:42.346Z,99366.20
2018-01-18T18:29:11.875Z,99371.55
2018-01-18T18:31:41.112Z,99381.91
2018-01-18T18:34:12.686Z,99385.84
2018-01-18T18:36:42.192Z,99385.48
2018-01-18T18:39:11.555Z,99383.28
2018-01-18T18:41:40.845Z,99386.43
2018-01-18T18:44:10.197Z,99391.77
2018-01-18T18:46:39.487Z,99401.88
2018-01-18T18:49:09.044Z,99411.99
2018-01-18T18:51:38.195Z,99408.20
2018-01-18T18:54:07.464Z,99417.27
2018-01-18T18:56:37.567Z,99423.30
2018-01-18T18:59:06.674Z,99424.74
2018-01-18T19:01:36.368Z,99428.87
2018-01-18T19:04:06.328Z,99427.73
2018-01-18T19:06:35.510Z,99438.23
2018-01-18T19:09:05.496Z,99435.13
2018-01-18T19:11:35.108Z,99441.01
2018-01-18T19:14:06.691Z,99436.92
2018-01-18T19:16:36.784Z,99442.72
2018-01-18T19:19:06.936Z,99445.30
2018-01-18T19:21:36.402Z,99447.36
2018-01-18T19:24:06.266Z,99443.40
2018-01-18T19:26:36.098Z,99440.65
2018-01-18T19:29:05.567Z,99436.03
2018-01-18T19:31:34.787Z,99436.09
2018-01-18T19:34:04.846Z,99432.45
2018-01-18T19:36:34.283Z,99429.45
2018-01-18T19:39:03.877Z,99436.70
2018-01-18T19:41:33.704Z,99440.94
2018-01-18T19:44:05.262Z,99439.34
2018-01-18T19:46:34.502Z,99438.30
2018-01-18T19:49:04.791Z,99435.43
2018-01-18T19:51:35.479Z,99426.89
2018-01-18T19:54:05.835Z,99426.28
2018-01-18T19:56:35.336Z,99428.41
2018-01-18T19:59:04.991Z,99434.62
2018-01-18T20:01:34.732Z,99435.92
2018-01-18T20:04:05.503Z,99441.28
2018-01-18T20:06:34.779Z,99451.47
2018-01-18T20:09:05.305Z,99460.69
2018-01-18T20:11:36.576Z,99449.65
2018-01-18T20:14:06.929Z,99439.63
2018-01-18T20:16:36.400Z,99435.11
2018-01-18T20:19:05.817Z,99440.05
2018-01-18T20:21:35.072Z,99438.09
2018-01-18T20:24:05.498Z,99440.67
2018-01-18T20:26:34.819Z,99442.14
2018-01-18T20:29:04.269Z,99439.56
2018-01-18T20:31:33.740Z,99441.83
2018-01-18T20:34:04.033Z,99454.34
2018-01-18T20:36:33.308Z,99441.97
2018-01-18T20:39:03.256Z,99440.67
2018-01-18T20:41:32.566Z,99450.73
2018-01-18T20:44:02.337Z,99451.20
2018-01-18T20:46:31.919Z,99452.45
2018-01-18T20:49:01.489Z,99456.92
2018-01-18T20:51:30.647Z,99457.95
2018-01-18T20:54:00.083Z,99455.00
2018-01-18T20:56:30.229Z,99462.04
2018-01-18T20:58:59.409Z,99465.02
2018-01-18T21:01:28.976Z,99461.74
2018-01-18T21:03:58.098Z,99461.72
2018-01-18T21:06:27.262Z,99452.77
2018-01-18T21:08:56.451Z,99459.59
2018-01-18T21:13:53.778Z,99454.32
2018-01-18T21:16:23.960Z,99444.71
2018-01-18T21:18:53.340Z,99448.30
2018-01-18T21:21:22.511Z,99441.09
2018-01-18T21:23:52.650Z,99440.48
2018-01-18T21:26:22.107Z,99436.25
2018-01-18T21:28:51.258Z,99443.14
2018-01-18T21:31:21.683Z,99440.27
2018-01-18T21:33:51.122Z,99435.73
2018-01-18T21:36:20.735Z,99425.41
2018-01-18T21:38:49.872Z,99426.05
2018-01-18T21:41:20.187Z,99416.80
2018-01-18T21:43:49.459Z,99422.62
2018-01-18T21:46:18.886Z,99427.33
2018-01-18T21:48:48.586Z,99428.11
2018-01-18T21:51:17.857Z,99425.11
2018-01-18T21:53:46.992Z,99416.80
2018-01-18T21:56:16.661Z,99418.86
2018-01-18T21:58:46.226Z,99422.45
2018-01-18T22:01:15.375Z,99417.75
2018-01-18T22:03:45.325Z,99412.13
2018-01-18T22:06:14.459Z,99406.22
2018-01-18T22:08:43.718Z,99407.81
2018-01-18T22:11:13.230Z,99409.77
2018-01-18T22:13:42.362Z,99413.65
2018-01-18T22:16:11.650Z,99405.48
2018-01-18T22:18:41.071Z,99402.22
2018-01-18T22:21:10.382Z,99399.55
2018-01-18T22:23:39.702Z,99404.97
2018-01-18T22:27:11.811Z,99393.95
2018-01-18T22:29:40.925Z,99395.95
2018-01-18T22:32:10.665Z,99386.54
2018-01-18T22:34:39.801Z,99384.13
2018-01-18T22:37:09.448Z,99385.95
2018-01-18T22:39:38.999Z,99373.83
2018-01-18T22:42:08.238Z,99373.02
2018-01-18T22:44:37.471Z,99370.95
2018-01-18T22:47:06.908Z,99369.66
2018-01-18T22:49:36.075Z,99368.19
2018-01-18T22:52:05.791Z,99361.75
2018-01-18T22:54:35.219Z,99360.56
2018-01-18T22:57:04.571Z,99356.19
2018-01-18T22:59:33.836Z,99345.61
2018-01-18T23:02:04.178Z,99339.08
2018-01-18T23:04:33.322Z,99333.59
2018-01-18T23:07:02.716Z,99332.45
2018-01-18T23:09:31.862Z,99331.92
2018-01-18T23:12:01.251Z,99348.25
2018-01-18T23:14:30.865Z,99355.24
2018-01-18T23:17:01.158Z,99361.70
2018-01-18T23:19:30.594Z,99366.41
2018-01-18T23:22:00.419Z,99373.69
2018-01-18T23:24:30.422Z,99368.66
2018-01-18T23:27:00.067Z,99355.47
2018-01-18T23:29:29.215Z,99355.41
2018-01-18T23:31:58.653Z,99342.50
2018-01-18T23:34:28.079Z,99343.34
2018-01-18T23:36:57.834Z,99334.95
2018-01-18T23:39:26.942Z,99349.29
2018-01-18T23:41:56.495Z,99356.05
2018-01-18T23:44:26.195Z,99370.72
2018-01-18T23:46:55.667Z,99419.58
2018-01-18T23:49:25.066Z,99460.29
2018-01-18T23:51:54.346Z,99465.11
2018-01-18T23:54:23.474Z,99461.69
2018-01-18T23:56:52.958Z,99456.16
2018-01-18T23:59:22.864Z,99436.53
